sensor_id;sensor_type;location;lat;lon;timestamp;temperature;humidity
65046;DHT22;54657;52.022;5.534;2023-02-18T00:01:11;11.40;94.00
65046;DHT22;54657;52.022;5.534;2023-02-18T00:03:37;11.40;94.00
65046;DHT22;54657;52.022;5.534;2023-02-18T00:06:19;11.40;94.20
65046;DHT22;54657;52.022;5.534;2023-02-18T00:08:45;11.40;94.40
65046;DHT22;54657;52.022;5.534;2023-02-18T00:11:12;11.30;94.20
65046;DHT22;54657;52.022;5.534;2023-02-18T00:13:38;11.40;94.30
65046;DHT22;54657;52.022;5.534;2023-02-18T00:16:06;11.30;94.30
65046;DHT22;54657;52.022;5.534;2023-02-18T00:18:31;11.30;94.30
65046;DHT22;54657;52.022;5.534;2023-02-18T00:20:57;11.30;94.40
65046;DHT22;54657;52.022;5.534;2023-02-18T00:23:23;11.30;94.30
65046;DHT22;54657;52.022;5.534;2023-02-18T00:25:49;11.30;94.40
65046;DHT22;54657;52.022;5.534;2023-02-18T00:28:22;11.30;94.40
65046;DHT22;54657;52.022;5.534;2023-02-18T00:30:48;11.30;94.40
65046;DHT22;54657;52.022;5.534;2023-02-18T00:33:13;11.30;94.50
65046;DHT22;54657;52.022;5.534;2023-02-18T00:35:39;11.30;94.50
65046;DHT22;54657;52.022;5.534;2023-02-18T00:38:04;11.30;94.50
65046;DHT22;54657;52.022;5.534;2023-02-18T00:40:30;11.30;94.50
65046;DHT22;54657;52.022;5.534;2023-02-18T00:42:55;11.30;94.40
65046;DHT22;54657;52.022;5.534;2023-02-18T00:45:21;11.30;94.40
65046;DHT22;54657;52.022;5.534;2023-02-18T00:47:46;11.30;94.40
65046;DHT22;54657;52.022;5.534;2023-02-18T00:50:12;11.20;94.50
65046;DHT22;54657;52.022;5.534;2023-02-18T00:52:37;11.20;94.60
65046;DHT22;54657;52.022;5.534;2023-02-18T00:55:03;11.10;94.70
65046;DHT22;54657;52.022;5.534;2023-02-18T00:57:29;11.10;94.70
65046;DHT22;54657;52.022;5.534;2023-02-18T00:59:54;11.10;94.70
65046;DHT22;54657;52.022;5.534;2023-02-18T01:02:20;11.10;94.80
65046;DHT22;54657;52.022;5.534;2023-02-18T01:04:45;11.00;94.90
65046;DHT22;54657;52.022;5.534;2023-02-18T01:07:11;11.00;94.90
65046;DHT22;54657;52.022;5.534;2023-02-18T01:09:36;11.00;95.00
65046;DHT22;54657;52.022;5.534;2023-02-18T01:12:03;11.00;95.00
65046;DHT22;54657;52.022;5.534;2023-02-18T01:14:28;10.90;94.90
65046;DHT22;54657;52.022;5.534;2023-02-18T01:16:54;10.90;95.00
65046;DHT22;54657;52.022;5.534;2023-02-18T01:19:19;10.90;95.10
65046;DHT22;54657;52.022;5.534;2023-02-18T01:21:45;10.90;95.20
65046;DHT22;54657;52.022;5.534;2023-02-18T01:24:10;10.80;95.30
65046;DHT22;54657;52.022;5.534;2023-02-18T01:26:36;10.80;95.30
65046;DHT22;54657;52.022;5.534;2023-02-18T01:29:02;10.80;95.20
65046;DHT22;54657;52.022;5.534;2023-02-18T01:31:27;10.80;95.30
65046;DHT22;54657;52.022;5.534;2023-02-18T01:33:53;10.80;95.30
65046;DHT22;54657;52.022;5.534;2023-02-18T01:36:19;10.80;95.30
65046;DHT22;54657;52.022;5.534;2023-02-18T01:38:44;10.80;95.20
65046;DHT22;54657;52.022;5.534;2023-02-18T01:41:10;10.80;95.30
65046;DHT22;54657;52.022;5.534;2023-02-18T01:43:36;10.80;95.50
65046;DHT22;54657;52.022;5.534;2023-02-18T01:46:16;10.90;95.10
65046;DHT22;54657;52.022;5.534;2023-02-18T01:48:57;10.90;95.20
65046;DHT22;54657;52.022;5.534;2023-02-18T01:51:29;10.80;95.30
65046;DHT22;54657;52.022;5.534;2023-02-18T01:54:05;10.80;95.00
65046;DHT22;54657;52.022;5.534;2023-02-18T01:59:07;10.90;95.40
65046;DHT22;54657;52.022;5.534;2023-02-18T02:01:34;10.90;95.20
65046;DHT22;54657;52.022;5.534;2023-02-18T02:04:00;10.90;95.10
65046;DHT22;54657;52.022;5.534;2023-02-18T02:06:25;10.90;95.10
65046;DHT22;54657;52.022;5.534;2023-02-18T02:08:54;10.90;95.10
65046;DHT22;54657;52.022;5.534;2023-02-18T02:17:03;10.90;95.20
65046;DHT22;54657;52.022;5.534;2023-02-18T02:22:28;11.00;95.20
65046;DHT22;54657;52.022;5.534;2023-02-18T02:25:20;11.00;95.20
65046;DHT22;54657;52.022;5.534;2023-02-18T02:28:24;11.00;95.30
65046;DHT22;54657;52.022;5.534;2023-02-18T02:31:02;11.00;95.50
65046;DHT22;54657;52.022;5.534;2023-02-18T02:34:01;11.10;95.30
65046;DHT22;54657;52.022;5.534;2023-02-18T02:36:42;11.10;95.50
65046;DHT22;54657;52.022;5.534;2023-02-18T02:42:16;11.10;95.20
65046;DHT22;54657;52.022;5.534;2023-02-18T02:45:00;11.10;95.30
65046;DHT22;54657;52.022;5.534;2023-02-18T02:47:44;11.20;95.20
65046;DHT22;54657;52.022;5.534;2023-02-18T02:50:24;11.20;95.30
65046;DHT22;54657;52.022;5.534;2023-02-18T02:52:57;11.20;95.30
65046;DHT22;54657;52.022;5.534;2023-02-18T02:55:23;11.30;95.30
65046;DHT22;54657;52.022;5.534;2023-02-18T02:57:52;11.30;95.20
65046;DHT22;54657;52.022;5.534;2023-02-18T03:00:21;11.30;95.30
65046;DHT22;54657;52.022;5.534;2023-02-18T03:03:28;11.30;95.20
65046;DHT22;54657;52.022;5.534;2023-02-18T03:11:11;11.30;95.50
65046;DHT22;54657;52.022;5.534;2023-02-18T03:16:52;11.30;95.90
65046;DHT22;54657;52.022;5.534;2023-02-18T03:19:23;11.30;95.90
65046;DHT22;54657;52.022;5.534;2023-02-18T03:21:55;11.30;95.90
65046;DHT22;54657;52.022;5.534;2023-02-18T03:24:29;11.30;95.80
65046;DHT22;54657;52.022;5.534;2023-02-18T03:27:03;11.40;95.60
65046;DHT22;54657;52.022;5.534;2023-02-18T03:29:30;11.30;95.90
65046;DHT22;54657;52.022;5.534;2023-02-18T03:31:59;11.40;95.60
65046;DHT22;54657;52.022;5.534;2023-02-18T03:34:33;11.40;95.90
65046;DHT22;54657;52.022;5.534;2023-02-18T03:37:00;11.40;95.80
65046;DHT22;54657;52.022;5.534;2023-02-18T03:39:28;11.40;95.70
65046;DHT22;54657;52.022;5.534;2023-02-18T03:41:55;11.40;95.70
65046;DHT22;54657;52.022;5.534;2023-02-18T03:44:23;11.40;95.60
65046;DHT22;54657;52.022;5.534;2023-02-18T03:46:49;11.50;95.70
65046;DHT22;54657;52.022;5.534;2023-02-18T03:49:15;11.50;95.70
65046;DHT22;54657;52.022;5.534;2023-02-18T03:51:41;11.50;95.90
65046;DHT22;54657;52.022;5.534;2023-02-18T03:54:07;11.50;95.90
65046;DHT22;54657;52.022;5.534;2023-02-18T03:56:34;11.50;95.70
65046;DHT22;54657;52.022;5.534;2023-02-18T03:59:00;11.50;95.90
65046;DHT22;54657;52.022;5.534;2023-02-18T04:01:26;11.50;95.90
65046;DHT22;54657;52.022;5.534;2023-02-18T04:03:51;11.50;96.10
65046;DHT22;54657;52.022;5.534;2023-02-18T04:06:19;11.50;96.00
65046;DHT22;54657;52.022;5.534;2023-02-18T04:08:45;11.50;96.00
65046;DHT22;54657;52.022;5.534;2023-02-18T04:11:11;11.50;96.10
65046;DHT22;54657;52.022;5.534;2023-02-18T04:13:36;11.50;96.00
65046;DHT22;54657;52.022;5.534;2023-02-18T04:16:02;11.50;96.00
65046;DHT22;54657;52.022;5.534;2023-02-18T04:18:27;11.60;96.00
65046;DHT22;54657;52.022;5.534;2023-02-18T04:20:53;11.60;96.10
65046;DHT22;54657;52.022;5.534;2023-02-18T04:23:18;11.60;96.10
65046;DHT22;54657;52.022;5.534;2023-02-18T04:25:44;11.60;96.20
65046;DHT22;54657;52.022;5.534;2023-02-18T04:28:12;11.60;96.10
65046;DHT22;54657;52.022;5.534;2023-02-18T04:30:38;11.60;96.10
65046;DHT22;54657;52.022;5.534;2023-02-18T04:33:04;11.70;96.20
65046;DHT22;54657;52.022;5.534;2023-02-18T04:35:29;11.70;96.30
65046;DHT22;54657;52.022;5.534;2023-02-18T04:37:55;11.70;96.20
65046;DHT22;54657;52.022;5.534;2023-02-18T04:40:20;11.60;96.30
65046;DHT22;54657;52.022;5.534;2023-02-18T04:42:46;11.60;96.50
65046;DHT22;54657;52.022;5.534;2023-02-18T04:45:11;11.60;96.20
65046;DHT22;54657;52.022;5.534;2023-02-18T04:47:37;11.60;96.30
65046;DHT22;54657;52.022;5.534;2023-02-18T04:50:03;11.60;96.30
65046;DHT22;54657;52.022;5.534;2023-02-18T04:52:28;11.60;96.40
65046;DHT22;54657;52.022;5.534;2023-02-18T04:54:54;11.60;96.40
65046;DHT22;54657;52.022;5.534;2023-02-18T04:57:19;11.70;96.50
65046;DHT22;54657;52.022;5.534;2023-02-18T04:59:45;11.60;96.40
65046;DHT22;54657;52.022;5.534;2023-02-18T05:02:11;11.60;96.50
65046;DHT22;54657;52.022;5.534;2023-02-18T05:04:36;11.60;96.40
65046;DHT22;54657;52.022;5.534;2023-02-18T05:07:02;11.60;96.40
65046;DHT22;54657;52.022;5.534;2023-02-18T05:09:27;11.60;96.40
65046;DHT22;54657;52.022;5.534;2023-02-18T05:11:53;11.60;96.40
65046;DHT22;54657;52.022;5.534;2023-02-18T05:14:19;11.60;96.50
65046;DHT22;54657;52.022;5.534;2023-02-18T05:16:44;11.60;96.40
65046;DHT22;54657;52.022;5.534;2023-02-18T05:19:13;11.60;96.70
65046;DHT22;54657;52.022;5.534;2023-02-18T05:21:39;11.60;96.60
65046;DHT22;54657;52.022;5.534;2023-02-18T05:24:05;11.50;96.40
65046;DHT22;54657;52.022;5.534;2023-02-18T05:26:30;11.50;96.50
65046;DHT22;54657;52.022;5.534;2023-02-18T05:28:56;11.50;96.50
65046;DHT22;54657;52.022;5.534;2023-02-18T05:31:22;11.50;96.60
65046;DHT22;54657;52.022;5.534;2023-02-18T05:33:48;11.50;96.60
65046;DHT22;54657;52.022;5.534;2023-02-18T05:36:13;11.50;96.60
65046;DHT22;54657;52.022;5.534;2023-02-18T05:38:39;11.50;96.70
65046;DHT22;54657;52.022;5.534;2023-02-18T05:41:04;11.50;96.60
65046;DHT22;54657;52.022;5.534;2023-02-18T05:43:30;11.50;96.70
65046;DHT22;54657;52.022;5.534;2023-02-18T05:46:15;11.50;96.70
65046;DHT22;54657;52.022;5.534;2023-02-18T05:48:41;11.40;96.80
65046;DHT22;54657;52.022;5.534;2023-02-18T05:51:06;11.50;96.60
65046;DHT22;54657;52.022;5.534;2023-02-18T05:53:32;11.50;96.60
65046;DHT22;54657;52.022;5.534;2023-02-18T05:55:58;11.40;96.60
65046;DHT22;54657;52.022;5.534;2023-02-18T05:58:23;11.40;96.70
65046;DHT22;54657;52.022;5.534;2023-02-18T06:00:49;11.40;96.60
65046;DHT22;54657;52.022;5.534;2023-02-18T06:03:14;11.40;96.70
65046;DHT22;54657;52.022;5.534;2023-02-18T06:05:40;11.40;96.60
65046;DHT22;54657;52.022;5.534;2023-02-18T06:08:05;11.40;96.60
65046;DHT22;54657;52.022;5.534;2023-02-18T06:10:31;11.40;96.60
65046;DHT22;54657;52.022;5.534;2023-02-18T06:12:56;11.30;96.70
65046;DHT22;54657;52.022;5.534;2023-02-18T06:15:22;11.30;96.90
65046;DHT22;54657;52.022;5.534;2023-02-18T06:17:47;11.30;97.00
65046;DHT22;54657;52.022;5.534;2023-02-18T06:20:13;11.30;96.90
65046;DHT22;54657;52.022;5.534;2023-02-18T06:22:38;11.30;96.80
65046;DHT22;54657;52.022;5.534;2023-02-18T06:25:04;11.30;97.00
65046;DHT22;54657;52.022;5.534;2023-02-18T06:27:30;11.30;96.90
65046;DHT22;54657;52.022;5.534;2023-02-18T06:29:56;11.30;96.90
65046;DHT22;54657;52.022;5.534;2023-02-18T06:32:21;11.30;96.70
65046;DHT22;54657;52.022;5.534;2023-02-18T06:34:47;11.30;96.70
65046;DHT22;54657;52.022;5.534;2023-02-18T06:37:12;11.30;96.70
65046;DHT22;54657;52.022;5.534;2023-02-18T06:39:38;11.40;96.70
65046;DHT22;54657;52.022;5.534;2023-02-18T06:42:04;11.30;96.80
65046;DHT22;54657;52.022;5.534;2023-02-18T06:44:29;11.30;96.70
65046;DHT22;54657;52.022;5.534;2023-02-18T06:46:55;11.30;96.80
65046;DHT22;54657;52.022;5.534;2023-02-18T06:49:20;11.30;96.70
65046;DHT22;54657;52.022;5.534;2023-02-18T06:51:46;11.40;96.70
65046;DHT22;54657;52.022;5.534;2023-02-18T06:54:11;11.40;96.60
65046;DHT22;54657;52.022;5.534;2023-02-18T06:56:37;11.30;96.60
65046;DHT22;54657;52.022;5.534;2023-02-18T06:59:03;11.30;96.60
65046;DHT22;54657;52.022;5.534;2023-02-18T07:01:28;11.40;96.70
65046;DHT22;54657;52.022;5.534;2023-02-18T07:03:54;11.30;96.80
65046;DHT22;54657;52.022;5.534;2023-02-18T07:06:19;11.30;96.80
65046;DHT22;54657;52.022;5.534;2023-02-18T07:08:45;11.30;96.80
65046;DHT22;54657;52.022;5.534;2023-02-18T07:11:10;11.30;96.80
65046;DHT22;54657;52.022;5.534;2023-02-18T07:13:36;11.30;96.70
65046;DHT22;54657;52.022;5.534;2023-02-18T07:16:02;11.30;96.70
65046;DHT22;54657;52.022;5.534;2023-02-18T07:18:27;11.30;96.60
65046;DHT22;54657;52.022;5.534;2023-02-18T07:20:53;11.30;96.60
65046;DHT22;54657;52.022;5.534;2023-02-18T07:23:18;11.30;96.60
65046;DHT22;54657;52.022;5.534;2023-02-18T07:25:44;11.30;96.60
65046;DHT22;54657;52.022;5.534;2023-02-18T07:28:10;11.30;96.60
65046;DHT22;54657;52.022;5.534;2023-02-18T07:30:35;11.30;96.50
65046;DHT22;54657;52.022;5.534;2023-02-18T07:33:01;11.30;96.50
65046;DHT22;54657;52.022;5.534;2023-02-18T07:35:26;11.30;96.50
65046;DHT22;54657;52.022;5.534;2023-02-18T07:37:52;11.30;96.50
65046;DHT22;54657;52.022;5.534;2023-02-18T07:40:19;11.30;96.50
65046;DHT22;54657;52.022;5.534;2023-02-18T07:42:46;11.30;96.50
65046;DHT22;54657;52.022;5.534;2023-02-18T07:45:12;11.20;96.40
65046;DHT22;54657;52.022;5.534;2023-02-18T07:47:38;11.20;96.50
65046;DHT22;54657;52.022;5.534;2023-02-18T07:50:05;11.20;96.60
65046;DHT22;54657;52.022;5.534;2023-02-18T07:52:31;11.20;96.70
65046;DHT22;54657;52.022;5.534;2023-02-18T07:54:56;11.20;96.50
65046;DHT22;54657;52.022;5.534;2023-02-18T07:57:22;11.20;96.30
65046;DHT22;54657;52.022;5.534;2023-02-18T07:59:47;11.20;96.30
65046;DHT22;54657;52.022;5.534;2023-02-18T08:02:19;11.20;96.20
65046;DHT22;54657;52.022;5.534;2023-02-18T08:04:45;11.20;96.20
65046;DHT22;54657;52.022;5.534;2023-02-18T08:07:13;11.20;96.00
65046;DHT22;54657;52.022;5.534;2023-02-18T08:09:40;11.20;96.10
65046;DHT22;54657;52.022;5.534;2023-02-18T08:12:06;11.20;96.10
65046;DHT22;54657;52.022;5.534;2023-02-18T08:14:31;11.20;96.00
65046;DHT22;54657;52.022;5.534;2023-02-18T08:16:57;11.20;95.90
65046;DHT22;54657;52.022;5.534;2023-02-18T08:19:23;11.20;95.80
65046;DHT22;54657;52.022;5.534;2023-02-18T08:21:48;11.20;95.70
65046;DHT22;54657;52.022;5.534;2023-02-18T08:24:14;11.20;95.70
65046;DHT22;54657;52.022;5.534;2023-02-18T08:26:39;11.20;95.70
65046;DHT22;54657;52.022;5.534;2023-02-18T08:29:05;11.10;95.70
65046;DHT22;54657;52.022;5.534;2023-02-18T08:31:31;11.10;95.60
65046;DHT22;54657;52.022;5.534;2023-02-18T08:33:58;11.10;95.60
65046;DHT22;54657;52.022;5.534;2023-02-18T08:36:25;11.10;95.60
65046;DHT22;54657;52.022;5.534;2023-02-18T08:38:50;11.10;95.60
65046;DHT22;54657;52.022;5.534;2023-02-18T08:41:16;11.00;95.60
65046;DHT22;54657;52.022;5.534;2023-02-18T08:43:45;11.00;95.60
65046;DHT22;54657;52.022;5.534;2023-02-18T08:46:11;11.00;95.50
65046;DHT22;54657;52.022;5.534;2023-02-18T08:48:37;11.00;95.50
65046;DHT22;54657;52.022;5.534;2023-02-18T08:51:20;11.00;95.50
65046;DHT22;54657;52.022;5.534;2023-02-18T08:53:46;11.10;95.40
65046;DHT22;54657;52.022;5.534;2023-02-18T08:56:13;11.00;95.50
65046;DHT22;54657;52.022;5.534;2023-02-18T08:58:39;11.00;95.50
65046;DHT22;54657;52.022;5.534;2023-02-18T09:01:07;11.00;95.40
65046;DHT22;54657;52.022;5.534;2023-02-18T09:03:33;11.00;95.50
65046;DHT22;54657;52.022;5.534;2023-02-18T09:05:59;10.90;95.50
65046;DHT22;54657;52.022;5.534;2023-02-18T09:08:25;10.90;95.50
65046;DHT22;54657;52.022;5.534;2023-02-18T09:10:54;10.90;95.70
65046;DHT22;54657;52.022;5.534;2023-02-18T09:13:21;10.80;96.00
65046;DHT22;54657;52.022;5.534;2023-02-18T09:15:55;10.80;95.80
65046;DHT22;54657;52.022;5.534;2023-02-18T09:18:21;10.90;95.70
65046;DHT22;54657;52.022;5.534;2023-02-18T09:20:46;10.80;95.70
65046;DHT22;54657;52.022;5.534;2023-02-18T09:23:12;10.80;95.70
65046;DHT22;54657;52.022;5.534;2023-02-18T09:25:39;10.80;95.70
65046;DHT22;54657;52.022;5.534;2023-02-18T09:28:07;10.80;95.70
65046;DHT22;54657;52.022;5.534;2023-02-18T09:30:32;10.80;95.70
65046;DHT22;54657;52.022;5.534;2023-02-18T09:32:58;10.80;95.60
65046;DHT22;54657;52.022;5.534;2023-02-18T09:35:23;10.90;95.40
65046;DHT22;54657;52.022;5.534;2023-02-18T09:37:49;10.90;95.50
65046;DHT22;54657;52.022;5.534;2023-02-18T09:40:31;10.90;95.40
65046;DHT22;54657;52.022;5.534;2023-02-18T09:42:57;10.90;95.30
65046;DHT22;54657;52.022;5.534;2023-02-18T09:45:23;10.90;95.10
65046;DHT22;54657;52.022;5.534;2023-02-18T09:47:50;10.90;95.10
65046;DHT22;54657;52.022;5.534;2023-02-18T09:50:29;10.90;95.10
65046;DHT22;54657;52.022;5.534;2023-02-18T09:52:58;10.90;94.90
65046;DHT22;54657;52.022;5.534;2023-02-18T09:55:35;10.90;94.90
65046;DHT22;54657;52.022;5.534;2023-02-18T09:58:16;10.90;94.90
65046;DHT22;54657;52.022;5.534;2023-02-18T10:01:02;11.00;94.60
65046;DHT22;54657;52.022;5.534;2023-02-18T10:03:28;11.00;94.70
65046;DHT22;54657;52.022;5.534;2023-02-18T10:06:05;11.00;94.50
65046;DHT22;54657;52.022;5.534;2023-02-18T10:08:41;11.10;94.60
65046;DHT22;54657;52.022;5.534;2023-02-18T10:11:23;11.00;94.40
65046;DHT22;54657;52.022;5.534;2023-02-18T10:13:52;11.10;94.30
65046;DHT22;54657;52.022;5.534;2023-02-18T10:16:19;11.00;94.50
65046;DHT22;54657;52.022;5.534;2023-02-18T10:18:48;11.10;94.50
65046;DHT22;54657;52.022;5.534;2023-02-18T10:21:27;11.10;94.40
65046;DHT22;54657;52.022;5.534;2023-02-18T10:26:54;11.00;94.20
65046;DHT22;54657;52.022;5.534;2023-02-18T10:29:21;11.00;94.40
65046;DHT22;54657;52.022;5.534;2023-02-18T10:34:39;11.10;94.10
65046;DHT22;54657;52.022;5.534;2023-02-18T10:46:21;11.20;94.10
65046;DHT22;54657;52.022;5.534;2023-02-18T10:49:00;11.20;94.20
65046;DHT22;54657;52.022;5.534;2023-02-18T10:51:31;11.20;94.30
65046;DHT22;54657;52.022;5.534;2023-02-18T10:53:59;11.20;94.30
65046;DHT22;54657;52.022;5.534;2023-02-18T10:56:58;11.30;94.30
65046;DHT22;54657;52.022;5.534;2023-02-18T10:59:26;11.30;94.00
65046;DHT22;54657;52.022;5.534;2023-02-18T11:02:02;11.40;94.20
65046;DHT22;54657;52.022;5.534;2023-02-18T11:04:35;11.40;94.10
65046;DHT22;54657;52.022;5.534;2023-02-18T11:07:11;11.40;94.20
65046;DHT22;54657;52.022;5.534;2023-02-18T11:09:49;11.40;94.00
65046;DHT22;54657;52.022;5.534;2023-02-18T11:12:43;11.50;94.00
65046;DHT22;54657;52.022;5.534;2023-02-18T11:17:37;11.50;94.10
65046;DHT22;54657;52.022;5.534;2023-02-18T11:20:33;11.60;94.00
65046;DHT22;54657;52.022;5.534;2023-02-18T11:23:15;11.70;93.90
65046;DHT22;54657;52.022;5.534;2023-02-18T11:25:51;11.70;93.80
65046;DHT22;54657;52.022;5.534;2023-02-18T11:30:46;11.70;94.00
65046;DHT22;54657;52.022;5.534;2023-02-18T11:33:36;11.70;94.00
65046;DHT22;54657;52.022;5.534;2023-02-18T11:38:44;11.80;93.90
65046;DHT22;54657;52.022;5.534;2023-02-18T11:41:14;11.80;93.80
65046;DHT22;54657;52.022;5.534;2023-02-18T11:43:44;11.80;93.90
65046;DHT22;54657;52.022;5.534;2023-02-18T11:46:20;11.80;93.80
65046;DHT22;54657;52.022;5.534;2023-02-18T11:48:46;11.80;93.90
65046;DHT22;54657;52.022;5.534;2023-02-18T11:51:27;11.80;93.90
65046;DHT22;54657;52.022;5.534;2023-02-18T11:54:21;11.90;93.80
65046;DHT22;54657;52.022;5.534;2023-02-18T11:57:05;11.80;94.00
65046;DHT22;54657;52.022;5.534;2023-02-18T11:59:34;11.80;94.20
65046;DHT22;54657;52.022;5.534;2023-02-18T12:04:40;11.80;94.30
65046;DHT22;54657;52.022;5.534;2023-02-18T12:09:48;11.80;94.60
65046;DHT22;54657;52.022;5.534;2023-02-18T12:12:27;11.80;94.60
65046;DHT22;54657;52.022;5.534;2023-02-18T12:14:54;11.80;94.60
65046;DHT22;54657;52.022;5.534;2023-02-18T12:26:10;11.90;94.50
65046;DHT22;54657;52.022;5.534;2023-02-18T12:34:00;11.90;94.30
65046;DHT22;54657;52.022;5.534;2023-02-18T12:42:02;12.00;94.20
65046;DHT22;54657;52.022;5.534;2023-02-18T12:44:42;12.00;94.00
65046;DHT22;54657;52.022;5.534;2023-02-18T12:59:13;12.00;93.70
65046;DHT22;54657;52.022;5.534;2023-02-18T13:02:15;12.00;94.10
65046;DHT22;54657;52.022;5.534;2023-02-18T13:10:27;12.10;93.80
65046;DHT22;54657;52.022;5.534;2023-02-18T13:13:10;12.10;93.70
65046;DHT22;54657;52.022;5.534;2023-02-18T13:16:05;12.20;93.90
65046;DHT22;54657;52.022;5.534;2023-02-18T13:18:36;12.20;93.80
65046;DHT22;54657;52.022;5.534;2023-02-18T13:21:11;12.20;93.90
65046;DHT22;54657;52.022;5.534;2023-02-18T13:23:42;12.20;93.80
65046;DHT22;54657;52.022;5.534;2023-02-18T13:26:12;12.30;93.80
65046;DHT22;54657;52.022;5.534;2023-02-18T13:31:41;12.30;93.80
65046;DHT22;54657;52.022;5.534;2023-02-18T13:34:26;12.40;93.50
65046;DHT22;54657;52.022;5.534;2023-02-18T13:39:25;12.30;93.20
65046;DHT22;54657;52.022;5.534;2023-02-18T13:47:41;12.40;93.50
65046;DHT22;54657;52.022;5.534;2023-02-18T13:55:29;12.40;93.50
65046;DHT22;54657;52.022;5.534;2023-02-18T13:57:58;12.40;93.60
65046;DHT22;54657;52.022;5.534;2023-02-18T14:00:34;12.40;93.60
65046;DHT22;54657;52.022;5.534;2023-02-18T14:03:18;12.40;93.40
65046;DHT22;54657;52.022;5.534;2023-02-18T14:05:44;12.40;93.60
65046;DHT22;54657;52.022;5.534;2023-02-18T14:08:14;12.40;93.60
65046;DHT22;54657;52.022;5.534;2023-02-18T14:10:40;12.40;93.60
65046;DHT22;54657;52.022;5.534;2023-02-18T14:13:23;12.40;93.60
65046;DHT22;54657;52.022;5.534;2023-02-18T14:15:57;12.40;93.50
65046;DHT22;54657;52.022;5.534;2023-02-18T14:23:41;12.40;93.50
65046;DHT22;54657;52.022;5.534;2023-02-18T14:28:43;12.40;93.50
65046;DHT22;54657;52.022;5.534;2023-02-18T14:34:11;12.40;93.50
65046;DHT22;54657;52.022;5.534;2023-02-18T14:39:35;12.40;93.50
65046;DHT22;54657;52.022;5.534;2023-02-18T14:50:04;12.50;93.00
65046;DHT22;54657;52.022;5.534;2023-02-18T14:52:47;12.50;93.40
65046;DHT22;54657;52.022;5.534;2023-02-18T14:55:24;12.50;93.30
65046;DHT22;54657;52.022;5.534;2023-02-18T14:57:55;12.50;93.30
65046;DHT22;54657;52.022;5.534;2023-02-18T15:00:27;12.50;93.40
65046;DHT22;54657;52.022;5.534;2023-02-18T15:02:57;12.50;93.30
65046;DHT22;54657;52.022;5.534;2023-02-18T15:05:27;12.50;93.60
65046;DHT22;54657;52.022;5.534;2023-02-18T15:08:03;12.50;93.20
65046;DHT22;54657;52.022;5.534;2023-02-18T15:10:35;12.50;92.70
65046;DHT22;54657;52.022;5.534;2023-02-18T15:13:04;12.50;93.40
65046;DHT22;54657;52.022;5.534;2023-02-18T15:15:33;12.50;93.40
65046;DHT22;54657;52.022;5.534;2023-02-18T15:18:01;12.50;93.40
65046;DHT22;54657;52.022;5.534;2023-02-18T15:20:30;12.50;93.30
65046;DHT22;54657;52.022;5.534;2023-02-18T15:22:56;12.50;93.40
65046;DHT22;54657;52.022;5.534;2023-02-18T15:25:22;12.50;93.30
65046;DHT22;54657;52.022;5.534;2023-02-18T15:27:50;12.50;93.30
65046;DHT22;54657;52.022;5.534;2023-02-18T15:30:28;12.50;93.20
65046;DHT22;54657;52.022;5.534;2023-02-18T15:32:57;12.50;93.10
65046;DHT22;54657;52.022;5.534;2023-02-18T15:35:30;12.50;93.20
65046;DHT22;54657;52.022;5.534;2023-02-18T15:37:59;12.50;93.30
65046;DHT22;54657;52.022;5.534;2023-02-18T15:40:30;12.40;93.20
65046;DHT22;54657;52.022;5.534;2023-02-18T15:42:58;12.40;93.10
65046;DHT22;54657;52.022;5.534;2023-02-18T15:45:32;12.50;93.30
65046;DHT22;54657;52.022;5.534;2023-02-18T15:47:59;12.40;93.30
65046;DHT22;54657;52.022;5.534;2023-02-18T15:50:34;12.40;93.30
65046;DHT22;54657;52.022;5.534;2023-02-18T15:53:08;12.40;93.20
65046;DHT22;54657;52.022;5.534;2023-02-18T15:55:37;12.40;93.30
65046;DHT22;54657;52.022;5.534;2023-02-18T15:58:08;12.40;93.30
65046;DHT22;54657;52.022;5.534;2023-02-18T16:00:40;12.40;93.20
65046;DHT22;54657;52.022;5.534;2023-02-18T16:03:19;12.40;93.20
65046;DHT22;54657;52.022;5.534;2023-02-18T16:05:46;12.40;93.10
65046;DHT22;54657;52.022;5.534;2023-02-18T16:08:15;12.40;93.30
65046;DHT22;54657;52.022;5.534;2023-02-18T16:10:56;12.40;93.30
65046;DHT22;54657;52.022;5.534;2023-02-18T16:13:24;12.40;93.20
65046;DHT22;54657;52.022;5.534;2023-02-18T16:15:51;12.30;93.40
65046;DHT22;54657;52.022;5.534;2023-02-18T16:18:35;12.30;93.30
65046;DHT22;54657;52.022;5.534;2023-02-18T16:21:06;12.30;93.20
65046;DHT22;54657;52.022;5.534;2023-02-18T16:23:58;12.30;93.30
65046;DHT22;54657;52.022;5.534;2023-02-18T16:26:51;12.30;93.20
65046;DHT22;54657;52.022;5.534;2023-02-18T16:29:31;12.30;92.90
65046;DHT22;54657;52.022;5.534;2023-02-18T16:31:58;12.20;93.30
65046;DHT22;54657;52.022;5.534;2023-02-18T16:34:23;12.20;93.40
65046;DHT22;54657;52.022;5.534;2023-02-18T16:36:49;12.20;93.40
65046;DHT22;54657;52.022;5.534;2023-02-18T16:39:34;12.20;93.30
65046;DHT22;54657;52.022;5.534;2023-02-18T16:42:00;12.20;93.40
65046;DHT22;54657;52.022;5.534;2023-02-18T16:44:26;12.20;93.40
65046;DHT22;54657;52.022;5.534;2023-02-18T16:46:51;12.20;93.40
65046;DHT22;54657;52.022;5.534;2023-02-18T16:49:17;12.20;93.40
65046;DHT22;54657;52.022;5.534;2023-02-18T16:51:43;12.10;93.40
65046;DHT22;54657;52.022;5.534;2023-02-18T16:54:12;12.10;93.40
65046;DHT22;54657;52.022;5.534;2023-02-18T16:56:38;12.10;93.40
65046;DHT22;54657;52.022;5.534;2023-02-18T16:59:04;12.10;93.40
65046;DHT22;54657;52.022;5.534;2023-02-18T17:01:36;12.10;93.40
65046;DHT22;54657;52.022;5.534;2023-02-18T17:04:04;12.10;93.40
65046;DHT22;54657;52.022;5.534;2023-02-18T17:06:33;12.10;93.40
65046;DHT22;54657;52.022;5.534;2023-02-18T17:08:58;12.00;93.40
65046;DHT22;54657;52.022;5.534;2023-02-18T17:11:29;12.10;93.50
65046;DHT22;54657;52.022;5.534;2023-02-18T17:13:55;12.00;93.40
65046;DHT22;54657;52.022;5.534;2023-02-18T17:16:24;12.10;93.50
65046;DHT22;54657;52.022;5.534;2023-02-18T17:18:50;12.10;93.50
65046;DHT22;54657;52.022;5.534;2023-02-18T17:21:18;12.00;93.40
65046;DHT22;54657;52.022;5.534;2023-02-18T17:23:44;12.00;93.40
65046;DHT22;54657;52.022;5.534;2023-02-18T17:26:25;12.00;93.50
65046;DHT22;54657;52.022;5.534;2023-02-18T17:28:59;12.00;93.40
65046;DHT22;54657;52.022;5.534;2023-02-18T17:31:36;12.00;93.50
65046;DHT22;54657;52.022;5.534;2023-02-18T17:37:36;11.90;93.40
65046;DHT22;54657;52.022;5.534;2023-02-18T17:40:02;11.90;93.60
65046;DHT22;54657;52.022;5.534;2023-02-18T17:42:30;11.90;93.70
65046;DHT22;54657;52.022;5.534;2023-02-18T17:45:25;11.80;93.70
65046;DHT22;54657;52.022;5.534;2023-02-18T17:48:22;11.90;93.50
65046;DHT22;54657;52.022;5.534;2023-02-18T17:50:56;11.80;93.50
65046;DHT22;54657;52.022;5.534;2023-02-18T17:53:22;11.80;93.70
65046;DHT22;54657;52.022;5.534;2023-02-18T17:56:07;11.80;93.70